Time;durP1;ratioP1;P1;durP2;ratioP2;P2;SDS_P1;SDS_P2;PMS_P1;PMS_P2;Temp;Humidity;BMP_temperature;BMP_pressure;BME280_temperature;BME280_humidity;BME280_pressure;Samples;Min_cycle;Max_cycle;Signal;HPM_P1;HPM_P2
2022/07/15 00:00:41;;;;;;;7.55;2.03;;;;;;;13.10;77.89;102308.09;5098957;28;20487;-76
2022/07/15 00:03:08;;;;;;;5.53;1.70;;;;;;;13.10;77.87;102313.44;5099087;28;20053;-76
2022/07/15 00:05:34;;;;;;;6.63;1.88;;;;;;;13.11;77.26;102314.19;5098991;28;20045;-76
2022/07/15 00:08:01;;;;;;;5.28;1.50;;;;;;;13.06;78.43;102320.78;5097709;28;20480;-77
2022/07/15 00:10:28;;;;;;;6.32;1.70;;;;;;;13.00;78.82;102322.47;5099863;28;20095;-76
2022/07/15 00:12:57;;;;;;;4.80;1.50;;;;;;;12.97;78.30;102315.28;5099144;28;20048;-75
2022/07/15 00:15:27;;;;;;;4.03;1.60;;;;;;;12.99;78.01;102319.03;5097815;28;20060;-76
2022/07/15 00:17:54;;;;;;;4.85;1.35;;;;;;;12.96;78.70;102322.53;5097413;28;20439;-76
2022/07/15 00:20:22;;;;;;;5.80;1.70;;;;;;;12.91;79.07;102312.34;5098657;28;20063;-75
2022/07/15 00:22:49;;;;;;;7.70;2.45;;;;;;;12.89;79.53;102320.03;5098268;28;20398;-75
2022/07/15 00:25:16;;;;;;;2.47;1.38;;;;;;;12.88;79.04;102318.53;5098822;28;20055;-75
2022/07/15 00:28:13;;;;;;;7.07;1.65;;;;;;;12.88;78.48;102315.09;5097598;28;20063;-77
2022/07/15 00:30:41;;;;;;;2.60;1.40;;;;;;;12.83;79.63;102310.25;5084447;28;20064;-76
2022/07/15 00:33:09;;;;;;;2.28;1.40;;;;;;;12.80;79.60;102308.41;5097293;28;20151;-75
2022/07/15 00:35:38;;;;;;;4.47;1.45;;;;;;;12.78;79.54;102314.19;5097339;28;20387;-76
2022/07/15 00:38:09;;;;;;;6.07;1.55;;;;;;;12.77;80.22;102310.03;5098740;28;20052;-75
2022/07/15 00:40:43;;;;;;;4.82;1.83;;;;;;;12.78;79.64;102311.53;5098837;28;20508;-75
2022/07/15 00:43:10;;;;;;;2.78;1.70;;;;;;;12.76;79.99;102316.53;5097334;28;20055;-75
2022/07/15 00:45:38;;;;;;;5.78;1.70;;;;;;;12.76;79.13;102311.19;5097378;28;20471;-74
2022/07/15 00:48:06;;;;;;;5.55;1.52;;;;;;;12.71;79.73;102309.00;5098173;28;20127;-74
2022/07/15 00:50:36;;;;;;;4.05;1.70;;;;;;;12.69;79.77;102308.66;5097038;28;20099;-76
2022/07/15 00:53:08;;;;;;;6.28;1.65;;;;;;;12.65;80.43;102308.75;5096932;28;20052;-76
2022/07/15 00:55:41;;;;;;;3.85;1.27;;;;;;;12.66;79.71;102302.22;5080100;28;20490;-74
2022/07/15 00:58:14;;;;;;;3.15;1.30;;;;;;;12.63;80.61;102297.72;5096848;28;20473;-75
2022/07/15 01:00:42;;;;;;;4.40;1.55;;;;;;;12.59;80.58;102299.72;5096481;28;20057;-76
2022/07/15 01:03:09;;;;;;;5.32;1.42;;;;;;;12.54;80.28;102305.53;5096819;28;20057;-75
2022/07/15 01:05:38;;;;;;;5.18;1.48;;;;;;;12.54;80.51;102304.78;5096748;28;20053;-75
2022/07/15 01:08:05;;;;;;;6.60;1.45;;;;;;;12.50;80.77;102299.53;5096780;28;20057;-75
2022/07/15 01:10:35;;;;;;;3.70;1.33;;;;;;;12.50;80.70;102304.13;5096458;28;20056;-74
2022/07/15 01:13:02;;;;;;;3.15;1.50;;;;;;;12.47;80.97;102292.34;5096452;28;20048;-75
2022/07/15 01:15:31;;;;;;;5.85;1.63;;;;;;;12.43;81.08;102298.91;5096798;28;20040;-75
2022/07/15 01:18:01;;;;;;;3.00;1.30;;;;;;;12.39;80.66;102299.03;5111840;28;20052;-75
2022/07/15 01:20:30;;;;;;;2.65;1.50;;;;;;;12.38;81.07;102292.19;5116931;28;20139;-75
2022/07/15 01:22:59;;;;;;;2.60;1.52;;;;;;;12.40;80.58;102302.41;5118283;27;20126;-73
2022/07/15 01:25:35;;;;;;;2.17;1.40;;;;;;;12.37;80.54;102300.59;5117018;28;20097;-74
2022/07/15 01:28:08;;;;;;;3.65;1.48;;;;;;;12.32;80.61;102299.91;5116919;28;20139;-74
2022/07/15 01:30:36;;;;;;;2.38;1.38;;;;;;;12.29;80.79;102308.75;5116802;28;20524;-75
2022/07/15 01:33:03;;;;;;;6.93;1.35;;;;;;;12.26;80.51;102306.91;5116868;28;20047;-75
2022/07/15 01:35:29;;;;;;;1.65;1.30;;;;;;;12.23;80.52;102304.31;5116853;28;20511;-74
2022/07/15 01:37:56;;;;;;;2.13;1.45;;;;;;;12.18;80.84;102300.19;5116401;28;20055;-74
2022/07/15 01:40:23;;;;;;;2.85;1.42;;;;;;;12.14;80.69;102309.44;5116961;28;20087;-74
2022/07/15 01:42:51;;;;;;;3.33;1.30;;;;;;;12.09;80.80;102305.34;5116557;28;20059;-75
2022/07/15 01:45:18;;;;;;;3.95;1.48;;;;;;;12.06;80.95;102316.84;5116886;28;20052;-75
2022/07/15 01:47:49;;;;;;;3.92;1.38;;;;;;;12.01;81.40;102315.41;5116635;28;20109;-74
2022/07/15 01:50:28;;;;;;;1.83;1.40;;;;;;;11.99;81.26;102315.09;5116656;28;20305;-75
2022/07/15 01:52:57;;;;;;;3.30;1.55;;;;;;;11.99;81.00;102315.09;5116817;28;20438;-74
2022/07/15 01:55:26;;;;;;;3.75;1.42;;;;;;;11.95;81.26;102318.97;5116422;28;20086;-74
2022/07/15 01:57:54;;;;;;;4.85;1.40;;;;;;;11.92;81.23;102311.78;5116634;28;20052;-75
2022/07/15 02:00:20;;;;;;;3.60;1.60;;;;;;;11.89;81.98;102317.94;5092597;28;20147;-74
2022/07/15 02:02:47;;;;;;;5.60;1.70;;;;;;;11.84;82.39;102318.41;5109781;28;20048;-75
2022/07/15 02:05:18;;;;;;;4.03;1.63;;;;;;;11.81;81.86;102319.22;5116753;28;20055;-75
2022/07/15 02:07:48;;;;;;;2.15;1.35;;;;;;;11.79;82.05;102314.31;5116405;28;20538;-74
2022/07/15 02:10:17;;;;;;;2.45;1.40;;;;;;;11.79;82.64;102313.56;5116229;28;20168;-75
2022/07/15 02:12:46;;;;;;;5.70;1.58;;;;;;;11.80;82.31;102310.47;5116351;28;20060;-75
2022/07/15 02:15:16;;;;;;;5.38;1.38;;;;;;;11.78;83.32;102315.47;5116157;28;20052;-74
2022/07/15 02:17:46;;;;;;;3.35;1.75;;;;;;;11.80;83.35;102310.47;5116026;28;20056;-74
2022/07/15 02:20:14;;;;;;;6.82;1.67;;;;;;;11.82;83.74;102316.16;5099447;28;20397;-74
2022/07/15 02:22:40;;;;;;;4.45;1.30;;;;;;;11.81;83.96;102311.22;5116182;28;20044;-75
2022/07/15 02:25:07;;;;;;;4.18;1.55;;;;;;;11.81;84.39;102311.97;5116027;28;20044;-76
2022/07/15 02:27:34;;;;;;;4.35;1.40;;;;;;;11.82;84.48;102313.50;5099364;28;20131;-75
2022/07/15 02:30:00;;;;;;;2.40;1.27;;;;;;;11.85;84.60;102317.25;5098489;28;20059;-76
2022/07/15 02:32:31;;;;;;;3.10;1.60;;;;;;;11.88;84.52;102316.44;5098809;28;20486;-75
2022/07/15 02:34:59;;;;;;;3.97;1.40;;;;;;;11.87;83.91;102310.34;5098990;28;20078;-76
2022/07/15 02:37:27;;;;;;;3.78;1.20;;;;;;;11.87;84.56;102317.59;5098683;28;20422;-76
2022/07/15 02:39:54;;;;;;;4.70;1.30;;;;;;;11.85;84.48;102315.34;5098822;28;20052;-74
2022/07/15 02:42:23;;;;;;;4.82;1.40;;;;;;;11.86;84.28;102318.75;5098794;28;20098;-75
2022/07/15 02:44:50;;;;;;;5.30;1.48;;;;;;;11.85;84.75;102314.59;5098606;28;20067;-74
2022/07/15 02:47:16;;;;;;;6.38;2.10;;;;;;;11.82;84.50;102313.50;5098963;28;20458;-75
2022/07/15 02:49:44;;;;;;;4.53;1.25;;;;;;;11.82;85.03;102315.41;5098611;28;20055;-75
2022/07/15 02:52:12;;;;;;;3.80;1.17;;;;;;;11.81;84.76;102316.56;5099000;28;20534;-74
2022/07/15 02:54:43;;;;;;;1.92;1.40;;;;;;;11.82;84.64;102321.50;5098957;28;20117;-76
2022/07/15 02:57:10;;;;;;;6.15;1.60;;;;;;;11.82;85.09;102324.16;5098169;28;20060;-74
2022/07/15 02:59:37;;;;;;;3.58;1.08;;;;;;;11.84;84.16;102323.75;5098533;28;20195;-75
2022/07/15 03:02:03;;;;;;;5.55;1.50;;;;;;;11.81;84.62;102324.56;5117099;28;20058;-73
2022/07/15 03:04:30;;;;;;;2.47;1.40;;;;;;;11.78;84.81;102328.06;5098709;28;20055;-74
2022/07/15 03:06:58;;;;;;;3.28;1.20;;;;;;;11.77;84.98;102329.22;5098680;27;20075;-75
2022/07/15 03:09:24;;;;;;;4.57;1.20;;;;;;;11.74;85.41;102338.00;5101661;28;20048;-73
2022/07/15 03:11:51;;;;;;;2.42;1.40;;;;;;;11.72;85.19;102340.31;5101659;28;20076;-74
2022/07/15 03:14:18;;;;;;;6.72;1.50;;;;;;;11.68;85.25;102335.81;5102302;28;20056;-74
2022/07/15 03:16:46;;;;;;;2.40;1.30;;;;;;;11.66;85.74;102330.13;5101935;28;20138;-74
2022/07/15 03:19:13;;;;;;;1.90;1.10;;;;;;;11.64;85.01;102337.03;5120263;28;20055;-74
2022/07/15 03:21:43;;;;;;;3.83;1.27;;;;;;;11.61;85.38;102335.94;5085270;28;20087;-74
2022/07/15 03:24:12;;;;;;;2.40;1.70;;;;;;;11.62;85.20;102339.34;5101446;28;20470;-75
2022/07/15 03:26:41;;;;;;;3.28;1.23;;;;;;;11.61;85.16;102338.59;5093881;28;20056;-74
2022/07/15 03:29:08;;;;;;;3.08;1.30;;;;;;;11.60;84.95;102342.41;5084701;28;20056;-74
2022/07/15 03:31:38;;;;;;;5.63;1.60;;;;;;;11.59;84.93;102342.84;5101411;28;20366;-74
2022/07/15 03:34:06;;;;;;;4.57;0.98;;;;;;;11.56;84.76;102352.41;5084885;28;20087;-74
2022/07/15 03:36:32;;;;;;;4.18;1.73;;;;;;;11.54;85.47;102356.66;5101126;28;20454;-74
2022/07/15 03:38:59;;;;;;;2.08;1.30;;;;;;;11.54;84.76;102360.06;5083986;28;20245;-74
2022/07/15 03:41:26;;;;;;;4.05;1.48;;;;;;;11.55;84.56;102344.81;5119859;28;20044;-75
2022/07/15 03:43:53;;;;;;;4.70;1.40;;;;;;;11.53;85.28;102360.47;5101348;28;20123;-74
2022/07/15 03:46:19;;;;;;;5.85;1.40;;;;;;;11.47;85.68;102354.84;5116435;28;20050;-74
2022/07/15 03:48:51;;;;;;;4.93;1.30;;;;;;;11.47;85.91;102354.84;5101182;28;20060;-74
2022/07/15 03:51:18;;;;;;;6.25;1.35;;;;;;;11.49;85.98;102363.19;5101166;28;20397;-74
2022/07/15 03:53:44;;;;;;;3.17;1.38;;;;;;;11.50;85.40;102369.28;5101232;28;20462;-73
2022/07/15 03:56:11;;;;;;;5.20;1.60;;;;;;;11.50;85.03;102366.63;5101481;28;20056;-74
2022/07/15 03:58:38;;;;;;;3.35;1.40;;;;;;;11.49;85.43;102365.88;5092990;28;20058;-73
2022/07/15 04:01:05;;;;;;;1.88;1.20;;;;;;;11.50;85.19;102374.63;5100905;28;20347;-74
2022/07/15 04:03:33;;;;;;;4.60;1.60;;;;;;;11.48;85.66;102380.34;5119520;28;20059;-73
2022/07/15 04:05:59;;;;;;;5.85;1.75;;;;;;;11.47;86.40;102373.53;5100724;28;20052;-73
2022/07/15 04:08:26;;;;;;;7.82;1.17;;;;;;;11.45;86.41;102375.09;5119362;28;20075;-73
2022/07/15 04:10:52;;;;;;;7.72;1.75;;;;;;;11.42;86.23;102373.97;5119346;28;20066;-73
2022/07/15 04:13:20;;;;;;;2.63;1.40;;;;;;;11.43;86.96;102375.47;5101032;28;20040;-73
2022/07/15 04:15:47;;;;;;;5.57;1.60;;;;;;;11.45;86.60;102377.75;5119419;28;20044;-73
2022/07/15 04:18:14;;;;;;;4.85;1.38;;;;;;;11.46;86.01;102374.69;5100887;27;20066;-73
2022/07/15 04:20:40;;;;;;;6.18;1.60;;;;;;;11.50;86.34;102375.38;5100505;28;20055;-73
2022/07/15 04:23:07;;;;;;;6.70;1.45;;;;;;;11.50;86.48;102375.38;5119260;28;20050;-74
2022/07/15 04:25:34;;;;;;;3.10;1.45;;;;;;;11.55;85.91;102376.81;5119200;28;20048;-72
2022/07/15 04:28:01;;;;;;;4.00;1.67;;;;;;;11.59;86.34;102383.63;5083803;28;20060;-73
2022/07/15 04:30:30;;;;;;;10.13;1.70;;;;;;;11.66;86.14;102382.72;5084348;28;20082;-73
2022/07/15 04:32:57;;;;;;;2.63;1.55;;;;;;;11.71;85.80;102384.91;5100570;28;20048;-73
2022/07/15 04:35:27;;;;;;;25.65;2.35;;;;;;;11.75;86.30;102390.19;5100478;28;20048;-73
2022/07/15 04:38:04;;;;;;;11.63;1.42;;;;;;;11.77;86.09;102380.66;5100591;28;20076;-73
2022/07/15 04:40:32;;;;;;;6.82;1.27;;;;;;;11.84;85.70;102387.78;5100521;28;20058;-74
2022/07/15 04:43:03;;;;;;;7.25;1.80;;;;;;;11.93;85.88;102390.69;5100661;28;20524;-73
2022/07/15 04:45:29;;;;;;;7.78;1.70;;;;;;;12.07;85.98;102392.31;5100370;28;20056;-73
2022/07/15 04:47:57;;;;;;;2.72;1.40;;;;;;;12.23;85.25;102398.50;5100431;28;20056;-74
2022/07/15 04:50:51;;;;;;;1.90;1.30;;;;;;;12.66;82.94;102395.75;5100507;28;20051;-74
2022/07/15 04:53:23;;;;;;;2.08;1.45;;;;;;;13.17;81.97;102409.56;5100427;28;20059;-74
2022/07/15 04:55:49;;;;;;;2.95;0.95;;;;;;;14.48;76.84;102399.38;5100377;28;20051;-73
2022/07/15 04:58:16;;;;;;;2.58;1.05;;;;;;;14.78;74.29;102400.81;5099711;28;20048;-74
2022/07/15 05:00:46;;;;;;;1.92;1.27;;;;;;;15.37;72.99;102402.78;5118445;28;20056;-75
2022/07/15 05:03:14;;;;;;;8.02;1.15;;;;;;;15.86;70.30;102402.38;5100267;28;20055;-74
2022/07/15 05:05:41;;;;;;;2.83;1.40;;;;;;;17.22;65.43;102402.31;5083308;28;20134;-74
2022/07/15 05:08:11;;;;;;;5.57;1.30;;;;;;;19.03;58.93;102399.09;5100133;28;20052;-74
2022/07/15 05:10:43;;;;;;;7.13;1.25;;;;;;;20.52;54.12;102398.88;5099677;28;20052;-74
2022/07/15 05:13:10;;;;;;;2.05;1.13;;;;;;;21.57;51.14;102402.28;5100151;28;20064;-74
2022/07/15 05:15:37;;;;;;;3.75;1.38;;;;;;;22.48;47.46;102402.59;5100241;28;20048;-74
2022/07/15 05:18:15;;;;;;;1.75;1.33;;;;;;;23.23;45.47;102398.56;5100106;28;20478;-74
2022/07/15 05:20:42;;;;;;;2.60;1.13;;;;;;;23.79;44.20;102406.16;5100269;28;20048;-75
2022/07/15 05:23:12;;;;;;;2.42;1.23;;;;;;;24.22;43.25;102406.69;5117669;28;20068;-74
2022/07/15 05:25:45;;;;;;;4.18;1.48;;;;;;;24.77;42.01;102405.16;5099749;28;20109;-74
2022/07/15 05:28:13;;;;;;;3.33;1.20;;;;;;;24.90;41.56;102408.78;5083031;28;20154;-74
2022/07/15 05:30:41;;;;;;;7.40;1.50;;;;;;;25.54;40.77;102406.06;5099357;28;20056;-75
2022/07/15 05:33:09;;;;;;;6.72;1.20;;;;;;;25.82;39.99;102405.91;5099683;28;20056;-75
2022/07/15 05:35:36;;;;;;;4.88;1.50;;;;;;;26.26;38.86;102407.53;5099744;28;20144;-75
2022/07/15 05:38:03;;;;;;;6.72;1.42;;;;;;;26.34;38.36;102407.75;5099365;28;20538;-75
2022/07/15 05:40:33;;;;;;;6.65;1.35;;;;;;;26.24;38.21;102410.78;5116678;28;20056;-75
2022/07/15 05:43:00;;;;;;;6.75;1.00;;;;;;;26.08;38.83;102410.91;5099894;28;20480;-77
2022/07/15 05:45:29;;;;;;;10.48;1.65;;;;;;;25.96;38.06;102410.28;5116491;28;20083;-75
2022/07/15 05:48:01;;;;;;;5.80;1.42;;;;;;;25.63;39.73;102411.19;5099452;28;20132;-79
2022/07/15 05:50:31;;;;;;;8.13;1.77;;;;;;;25.78;39.09;102411.63;5083010;28;20147;-78
2022/07/15 05:52:59;;;;;;;5.50;1.20;;;;;;;25.81;39.73;102415.34;5099609;28;20122;-74
2022/07/15 05:55:26;;;;;;;8.60;1.30;;;;;;;25.77;39.77;102415.59;5099929;28;20048;-76
2022/07/15 05:57:54;;;;;;;5.47;1.45;;;;;;;25.35;40.02;102413.34;5099033;27;20055;-75
2022/07/15 06:00:25;;;;;;;8.88;1.50;;;;;;;25.01;40.43;102408.06;5107116;28;20060;-77
2022/07/15 06:02:52;;;;;;;5.50;1.40;;;;;;;24.76;40.50;102403.66;5091306;27;20131;-79
2022/07/15 06:05:32;;;;;;;6.97;1.58;;;;;;;24.63;41.29;102406.16;5108236;27;20048;-82
2022/07/15 06:08:02;;;;;;;3.33;1.13;;;;;;;24.25;41.73;102403.75;5106625;27;20474;-79
2022/07/15 06:10:37;;;;;;;7.88;1.48;;;;;;;23.80;43.65;102402.19;5110409;27;20048;-78
2022/07/15 06:13:04;;;;;;;5.65;1.48;;;;;;;23.51;43.48;102412.25;5119892;27;20500;-76
2022/07/15 06:15:31;;;;;;;7.68;1.45;;;;;;;23.22;44.19;102409.91;5119486;27;20059;-77
2022/07/15 06:17:58;;;;;;;4.65;1.23;;;;;;;22.82;45.04;102403.56;5134130;27;20090;-78
2022/07/15 06:20:29;;;;;;;10.98;2.00;;;;;;;22.22;46.98;102408.06;5103522;27;20051;-75
2022/07/15 06:22:55;;;;;;;4.93;1.88;;;;;;;21.95;47.08;102405.84;5119666;27;20048;-74
2022/07/15 06:25:22;;;;;;;3.90;1.45;;;;;;;21.87;47.69;102405.53;5119560;27;20068;-73
2022/07/15 06:27:50;;;;;;;2.90;1.40;;;;;;;22.00;47.55;102407.09;5119158;27;20146;-75
2022/07/15 06:30:17;;;;;;;6.00;1.48;;;;;;;21.94;47.57;102404.34;5136644;27;20048;-75
2022/07/15 06:32:43;;;;;;;2.72;1.10;;;;;;;22.06;46.90;102402.50;5138051;27;20173;-72
2022/07/15 06:35:11;;;;;;;6.43;1.50;;;;;;;21.85;47.07;102405.25;5119373;27;20048;-75
2022/07/15 06:37:38;;;;;;;5.50;1.10;;;;;;;21.61;47.45;102405.50;5111171;27;20055;-73
2022/07/15 06:40:05;;;;;;;4.28;1.52;;;;;;;21.43;47.69;102408.50;5137679;27;20048;-75
2022/07/15 06:42:32;;;;;;;3.75;1.20;;;;;;;21.33;48.35;102409.84;5119595;27;20133;-74
2022/07/15 06:45:03;;;;;;;46.25;4.60;;;;;;;21.19;48.87;102407.94;5122709;27;20109;-74
2022/07/15 06:47:31;;;;;;;6.05;1.40;;;;;;;21.16;49.72;102417.03;5122807;27;20516;-74
2022/07/15 06:50:00;;;;;;;6.53;1.95;;;;;;;21.09;49.66;102412.00;5122800;27;20063;-75
2022/07/15 06:52:27;;;;;;;31.88;3.28;;;;;;;21.13;49.87;102409.84;5122507;27;20108;-76
2022/07/15 06:54:54;;;;;;;8.32;1.38;;;;;;;21.44;50.54;102417.38;5122453;27;20138;-76
2022/07/15 06:57:22;;;;;;;8.13;1.40;;;;;;;21.46;48.30;102417.66;5122641;27;20059;-74
2022/07/15 06:59:50;;;;;;;3.13;1.20;;;;;;;21.45;49.29;102406.06;5122322;27;20396;-75
2022/07/15 07:02:17;;;;;;;4.70;1.67;;;;;;;21.69;47.83;102411.25;5123190;27;20051;-75
2022/07/15 07:04:44;;;;;;;3.78;1.10;;;;;;;21.88;46.86;102415.16;5122577;27;20130;-77
2022/07/15 07:07:12;;;;;;;6.97;1.55;;;;;;;22.08;47.69;102414.34;5122476;27;20067;-76
2022/07/15 07:09:39;;;;;;;7.00;1.23;;;;;;;22.08;46.50;102422.50;5121942;27;20055;-77
2022/07/15 07:12:05;;;;;;;6.22;1.30;;;;;;;22.15;46.80;102418.59;5122669;27;20142;-74
2022/07/15 07:14:32;;;;;;;10.32;1.13;;;;;;;22.20;46.09;102421.38;5140935;27;20048;-76
2022/07/15 07:16:58;;;;;;;4.35;1.33;;;;;;;22.12;45.77;102420.31;5140897;27;20074;-74
2022/07/15 07:19:25;;;;;;;3.85;1.42;;;;;;;22.05;46.42;102423.44;5122725;27;20058;-75
2022/07/15 07:21:51;;;;;;;4.47;1.30;;;;;;;22.26;45.69;102426.84;5140354;27;20043;-76
2022/07/15 07:24:18;;;;;;;4.95;1.45;;;;;;;22.43;46.15;102425.00;5140732;27;20043;-75
2022/07/15 07:26:44;;;;;;;5.13;1.10;;;;;;;22.19;45.68;102430.00;5140721;27;20481;-75
2022/07/15 07:29:12;;;;;;;5.32;1.50;;;;;;;21.76;46.82;102432.50;5140740;27;20062;-76
2022/07/15 07:31:38;;;;;;;5.15;1.30;;;;;;;22.08;45.83;102425.19;5140883;27;20055;-77
2022/07/15 07:34:05;;;;;;;26.75;4.50;;;;;;;21.89;46.13;102426.72;5140575;27;20493;-75
2022/07/15 07:36:31;;;;;;;2.22;1.10;;;;;;;21.81;46.16;102426.41;5140401;27;20048;-75
2022/07/15 07:38:58;;;;;;;2.60;1.23;;;;;;;21.59;46.11;102423.47;5140819;27;20047;-74
2022/07/15 07:41:24;;;;;;;6.70;0.98;;;;;;;21.92;46.19;102434.66;5140530;27;20043;-74
2022/07/15 07:43:51;;;;;;;7.10;1.25;;;;;;;22.20;44.79;102434.19;5140332;27;20465;-73
2022/07/15 07:46:18;;;;;;;3.10;1.02;;;;;;;21.92;45.03;102420.34;5140329;27;20412;-75
2022/07/15 07:48:44;;;;;;;3.25;1.30;;;;;;;21.58;46.52;102425.44;5140544;27;20512;-74
2022/07/15 07:51:11;;;;;;;5.60;1.30;;;;;;;21.15;48.17;102429.06;5139687;27;20397;-75
2022/07/15 07:53:37;;;;;;;3.90;1.38;;;;;;;20.83;47.38;102423.44;5130168;27;20051;-75
2022/07/15 07:56:04;;;;;;;3.15;1.20;;;;;;;21.06;47.04;102426.47;5121113;27;20051;-75
2022/07/15 07:58:33;;;;;;;2.50;1.10;;;;;;;21.44;44.71;102423.53;5105885;28;20048;-76
2022/07/15 08:01:00;;;;;;;4.75;1.20;;;;;;;21.58;45.04;102428.16;5118570;28;20051;-75
2022/07/15 08:03:27;;;;;;;1.67;1.17;;;;;;;21.69;44.90;102430.22;5118580;28;20106;-75
2022/07/15 08:05:54;;;;;;;1.63;1.00;;;;;;;21.86;44.74;102435.81;5121372;27;20058;-76
2022/07/15 08:08:22;;;;;;;4.47;0.95;;;;;;;21.52;45.59;102427.34;5117645;28;20040;-76
2022/07/15 08:10:53;;;;;;;5.68;1.00;;;;;;;21.18;46.49;102441.66;5118759;28;20048;-74
2022/07/15 08:13:23;;;;;;;2.70;1.08;;;;;;;20.85;46.66;102428.41;5088364;28;20474;-76
2022/07/15 08:15:53;;;;;;;3.45;1.20;;;;;;;21.41;45.33;102438.03;5118296;28;20052;-76
2022/07/15 08:18:28;;;;;;;3.97;1.25;;;;;;;22.03;45.28;102436.75;5114708;27;20510;-76
2022/07/15 08:20:55;;;;;;;3.55;1.10;;;;;;;22.51;43.49;102430.72;5100923;28;20032;-75
2022/07/15 08:23:21;;;;;;;3.03;0.95;;;;;;;22.98;42.61;102423.16;5118758;28;20044;-76
2022/07/15 08:25:50;;;;;;;10.93;1.13;;;;;;;23.45;40.61;102430.53;5118083;28;20040;-77
2022/07/15 08:28:17;;;;;;;4.57;0.90;;;;;;;23.51;40.08;102428.56;5118615;28;20051;-75
2022/07/15 08:30:45;;;;;;;4.10;1.13;;;;;;;23.37;40.00;102429.50;5099783;28;20477;-76
2022/07/15 08:33:11;;;;;;;4.63;0.80;;;;;;;22.98;40.74;102417.72;5118475;28;20040;-79
2022/07/15 08:35:40;;;;;;;21.02;1.40;;;;;;;22.55;40.79;102429.28;5117782;28;20114;-77
2022/07/15 08:38:08;;;;;;;4.85;1.40;;;;;;;22.16;42.21;102420.09;5118202;28;20119;-75
2022/07/15 08:40:36;;;;;;;5.20;1.10;;;;;;;22.06;42.95;102430.34;5118302;28;20059;-76
2022/07/15 08:43:11;;;;;;;12.40;1.30;;;;;;;21.81;44.28;102423.69;5100353;28;20054;-76
2022/07/15 08:45:41;;;;;;;1.38;0.90;;;;;;;21.79;44.00;102428.09;5117210;28;20071;-76
2022/07/15 08:48:10;;;;;;;6.72;0.90;;;;;;;22.16;43.60;102431.69;5117908;28;20125;-78
2022/07/15 08:50:37;;;;;;;3.85;1.05;;;;;;;22.23;42.99;102425.84;5099899;28;20145;-76
2022/07/15 08:53:04;;;;;;;1.27;0.95;;;;;;;22.47;44.42;102420.09;5118000;28;20044;-82
2022/07/15 08:55:31;;;;;;;2.90;1.05;;;;;;;22.44;43.27;102423.03;5117283;28;20059;-77
2022/07/15 08:57:58;;;;;;;118.95;87.20;;;;;;;22.69;41.24;102424.94;5099466;28;20044;-78
2022/07/15 09:00:29;;;;;;;8.38;4.43;;;;;;;23.04;39.76;102423.94;5114885;28;20052;-78
2022/07/15 09:02:59;;;;;;;3.55;1.10;;;;;;;23.37;38.94;102429.50;5114692;28;20040;-79
2022/07/15 09:05:29;;;;;;;5.05;0.77;;;;;;;23.61;39.90;102421.69;5095509;28;20536;-77
2022/07/15 09:07:59;;;;;;;3.70;0.85;;;;;;;23.89;38.85;102419.03;5114302;28;20080;-79
2022/07/15 09:10:42;;;;;;;3.05;0.90;;;;;;;24.34;39.32;102410.16;5114021;28;20133;-78
2022/07/15 09:13:11;;;;;;;1.80;0.98;;;;;;;24.47;39.84;102413.09;5115717;28;20043;-77
2022/07/15 09:15:40;;;;;;;4.93;0.88;;;;;;;24.42;38.64;102420.03;5102892;28;20106;-78
2022/07/15 09:18:14;;;;;;;1.23;0.70;;;;;;;24.32;40.02;102407.94;5099299;28;20106;-79
2022/07/15 09:20:43;;;;;;;4.88;1.40;;;;;;;24.19;39.79;102408.41;5082602;28;20052;-77
2022/07/15 09:23:16;;;;;;;2.35;0.85;;;;;;;24.09;37.62;102409.13;5117470;28;20051;-79
2022/07/15 09:25:51;;;;;;;1.98;0.90;;;;;;;24.32;37.18;102409.91;5103040;28;20063;-82
2022/07/15 09:28:17;;;;;;;1.40;0.90;;;;;;;24.42;37.87;102406.44;5099504;28;20122;-78
2022/07/15 09:34:01;;;;;;;1.58;0.77;;;;;;;24.46;38.26;102393.31;5115825;28;20102;-78
2022/07/15 09:36:31;;;;;;;1.05;0.80;;;;;;;24.89;38.63;102390.97;5114386;28;20042;-75
2022/07/15 09:39:04;;;;;;;3.90;1.15;;;;;;;25.09;36.86;102403.56;5099207;28;20355;-75
2022/07/15 09:41:42;;;;;;;3.95;1.00;;;;;;;25.25;35.45;102410.16;5096206;28;20052;-75
2022/07/15 09:44:16;;;;;;;2.30;0.88;;;;;;;25.05;36.11;102396.91;5116840;28;20446;-74
2022/07/15 09:46:49;;;;;;;1.75;0.82;;;;;;;25.03;35.54;102391.94;5116802;28;20052;-74
2022/07/15 09:49:24;;;;;;;1.85;0.93;;;;;;;25.16;35.46;102392.16;5117382;28;20545;-74
2022/07/15 09:51:58;;;;;;;1.63;0.80;;;;;;;24.99;35.52;102398.91;5098716;28;20052;-75
2022/07/15 09:54:31;;;;;;;2.92;1.25;;;;;;;24.66;36.87;102394.28;5102131;27;20055;-76
2022/07/15 09:57:03;;;;;;;4.20;1.10;;;;;;;24.16;36.89;102389.59;5112877;28;20080;-77
2022/07/15 09:59:30;;;;;;;2.17;0.82;;;;;;;23.54;37.38;102396.97;5098848;28;20126;-75
2022/07/15 10:02:03;;;;;;;0.65;0.65;;;;;;;23.40;37.45;102397.88;5117164;28;20127;-77
2022/07/15 10:04:31;;;;;;;1.85;0.80;;;;;;;23.45;37.65;102397.16;5111798;28;20415;-81
2022/07/15 10:07:02;;;;;;;5.80;1.60;;;;;;;23.67;37.03;102386.34;5112835;28;20525;-78
2022/07/15 10:09:49;;;;;;;1.13;0.98;;;;;;;24.71;36.37;102388.06;5114746;27;20486;-79
2022/07/15 10:12:20;;;;;;;3.15;0.75;;;;;;;25.24;33.77;102376.72;5081608;28;20044;-78
2022/07/15 10:15:07;;;;;;;1.48;0.98;;;;;;;25.58;34.53;102382.75;5099001;28;20048;-76
2022/07/15 10:18:01;;;;;;;3.60;0.70;;;;;;;25.00;34.18;102379.31;5119250;28;20052;-80
2022/07/15 10:20:57;;;;;;;1.05;0.70;;;;;;;24.62;34.33;102383.63;5104097;28;20052;-76
2022/07/15 10:23:55;;;;;;;2.58;1.30;;;;;;;24.69;35.52;102380.41;5108907;28;20504;-81
2022/07/15 10:26:31;;;;;;;2.70;0.75;;;;;;;25.15;32.94;102376.31;5120720;28;20055;-76
2022/07/15 10:29:08;;;;;;;2.70;0.80;;;;;;;24.73;33.79;102366.53;5102827;28;20055;-76
2022/07/15 10:31:38;;;;;;;1.10;0.70;;;;;;;24.53;34.38;102379.19;5120644;28;20143;-76
2022/07/15 10:34:11;;;;;;;1.05;0.80;;;;;;;24.40;34.34;102375.50;5116942;28;20371;-76
2022/07/15 10:36:47;;;;;;;3.35;1.02;;;;;;;24.44;35.17;102376.00;5120436;28;20095;-76
2022/07/15 10:39:16;;;;;;;2.17;0.90;;;;;;;24.26;36.87;102363.66;5116895;28;20054;-78
2022/07/15 10:41:52;;;;;;;2.92;0.90;;;;;;;24.27;37.05;102365.88;5116291;28;20048;-74
2022/07/15 10:44:19;;;;;;;1.42;0.88;;;;;;;23.86;37.70;102364.88;5115687;28;20130;-73
2022/07/15 10:46:46;;;;;;;3.28;0.80;;;;;;;24.22;37.13;102358.44;5119946;28;20552;-73
2022/07/15 10:49:15;;;;;;;1.23;0.77;;;;;;;24.76;36.18;102357.38;5119821;28;20052;-73
2022/07/15 10:51:44;;;;;;;0.77;0.77;;;;;;;24.85;36.75;102349.63;5119926;28;20055;-73
2022/07/15 10:54:16;;;;;;;2.13;0.80;;;;;;;24.65;36.77;102360.13;5119800;28;20474;-73
2022/07/15 10:56:45;;;;;;;4.65;1.00;;;;;;;24.49;35.84;102348.75;5119619;28;20050;-73
2022/07/15 10:59:20;;;;;;;2.40;0.70;;;;;;;24.85;35.31;102352.34;5119919;28;21637;-75
2022/07/15 11:02:00;;;;;;;1.27;0.70;;;;;;;24.88;35.13;102356.06;5101267;28;20075;-73
2022/07/15 11:04:30;;;;;;;2.33;0.90;;;;;;;24.23;36.74;102351.75;5116770;28;20047;-72
2022/07/15 11:07:12;;;;;;;2.63;0.90;;;;;;;23.87;37.38;102336.47;5101099;28;20096;-73
2022/07/15 11:10:11;;;;;;;1.77;0.70;;;;;;;23.61;37.50;102325.81;5119554;28;20056;-72
2022/07/15 11:12:50;;;;;;;5.15;1.00;;;;;;;23.60;38.08;102325.06;5117717;28;20114;-73
2022/07/15 11:15:18;;;;;;;0.77;0.70;;;;;;;23.83;37.56;102330.53;5119311;28;20150;-73
2022/07/15 11:17:52;;;;;;;3.08;0.80;;;;;;;23.83;38.36;102325.81;5118872;28;20048;-73
2022/07/15 11:20:33;;;;;;;1.95;1.45;;;;;;;23.72;38.33;102331.25;5119738;28;20047;-72
2022/07/15 11:23:01;;;;;;;1.42;0.75;;;;;;;23.76;38.27;102325.56;5116056;28;20471;-74
2022/07/15 11:25:32;;;;;;;0.95;0.70;;;;;;;23.80;37.93;102323.34;5119189;28;20457;-73
2022/07/15 11:28:04;;;;;;;4.32;0.85;;;;;;;23.95;37.22;102315.69;5115135;27;20048;-73
2022/07/15 11:30:42;;;;;;;3.17;0.80;;;;;;;24.21;37.10;102315.41;5115830;28;20048;-74
2022/07/15 11:33:14;;;;;;;1.50;0.80;;;;;;;24.13;38.56;102322.59;5119272;28;20533;-75
2022/07/15 11:35:52;;;;;;;2.65;0.90;;;;;;;23.76;38.53;102326.31;5118632;28;20044;-76
2022/07/15 11:38:30;;;;;;;4.95;1.02;;;;;;;23.44;39.43;102331.19;5119174;28;20058;-75